Time;durP1;ratioP1;P1;durP2;ratioP2;P2;SDS_P1;SDS_P2;PMS_P1;PMS_P2;Temp;Humidity;BMP_temperature;BMP_pressure;BME280_temperature;BME280_humidity;BME280_pressure;Samples;Min_cycle;Max_cycle;Signal;HPM_P1;HPM_P2
2023/06/01 00:02:22;;;;;;;15.10;5.50;;;12.40;27.80;;;;;;5018053;28;46378;-63
2023/06/01 00:04:49;;;;;;;9.60;5.43;;;12.40;27.80;;;;;;5017558;28;46462;-63
2023/06/01 00:07:16;;;;;;;16.67;6.37;;;12.40;27.80;;;;;;5002744;28;48287;-63
2023/06/01 00:09:42;;;;;;;12.33;5.07;;;12.40;27.80;;;;;;5021959;28;46312;-63
2023/06/01 00:12:08;;;;;;;12.43;6.00;;;12.30;27.70;;;;;;5019394;28;46386;-64
2023/06/01 00:14:35;;;;;;;15.73;5.30;;;12.30;27.70;;;;;;5022346;28;46515;-64
2023/06/01 00:17:04;;;;;;;22.03;6.13;;;12.30;27.70;;;;;;5019732;28;47025;-64
2023/06/01 00:19:29;;;;;;;17.87;5.43;;;12.30;27.70;;;;;;5019863;28;46446;-62
2023/06/01 00:21:56;;;;;;;10.03;5.73;;;12.20;28.10;;;;;;5019831;28;46422;-63
2023/06/01 00:24:25;;;;;;;10.80;5.40;;;12.20;28.30;;;;;;5017595;28;46241;-63
2023/06/01 00:26:50;;;;;;;9.10;5.50;;;12.10;28.70;;;;;;5019172;28;46558;-64
2023/06/01 00:29:16;;;;;;;11.10;6.03;;;12.00;28.80;;;;;;5020805;28;46455;-64
2023/06/01 00:31:42;;;;;;;17.20;7.57;;;12.00;29.00;;;;;;5018578;28;46415;-63
2023/06/01 00:34:08;;;;;;;12.80;6.37;;;12.00;28.80;;;;;;5015741;28;45943;-63
2023/06/01 00:36:35;;;;;;;9.77;6.10;;;12.00;28.90;;;;;;5021540;28;46420;-63
2023/06/01 00:39:03;;;;;;;21.50;6.10;;;12.10;28.80;;;;;;5020427;28;46471;-63
2023/06/01 00:41:30;;;;;;;11.77;5.60;;;12.10;28.90;;;;;;5019017;28;46414;-63
2023/06/01 00:43:56;;;;;;;11.73;6.10;;;12.00;29.00;;;;;;5018034;28;45926;-63
2023/06/01 00:46:22;;;;;;;10.73;5.17;;;12.00;29.20;;;;;;5018619;28;47178;-63
2023/06/01 00:48:48;;;;;;;13.87;5.93;;;11.90;29.40;;;;;;5020822;28;46610;-64
2023/06/01 00:51:15;;;;;;;11.53;5.30;;;11.80;29.60;;;;;;5018765;28;46425;-64
2023/06/01 00:53:41;;;;;;;9.53;5.77;;;11.70;29.80;;;;;;5017632;28;46497;-64
2023/06/01 00:56:08;;;;;;;10.50;6.60;;;11.70;29.90;;;;;;5014474;28;46359;-63
2023/06/01 00:58:34;;;;;;;18.33;6.27;;;11.70;30.00;;;;;;5018960;28;46379;-63
2023/06/01 01:01:01;;;;;;;15.13;5.87;;;11.70;30.00;;;;;;5017581;28;46651;-64
2023/06/01 01:03:31;;;;;;;19.03;6.63;;;11.70;30.00;;;;;;5016348;28;46366;-63
2023/06/01 01:06:13;;;;;;;18.77;5.33;;;11.70;29.90;;;;;;5018245;28;46049;-64
2023/06/01 01:08:52;;;;;;;16.60;6.53;;;11.70;30.00;;;;;;5018315;28;46473;-64
2023/06/01 01:11:25;;;;;;;18.90;5.60;;;11.70;30.00;;;;;;5018203;28;46516;-63
2023/06/01 01:13:55;;;;;;;17.53;6.20;;;11.70;30.10;;;;;;5016449;28;46574;-63
2023/06/01 01:16:29;;;;;;;17.53;6.13;;;11.60;30.20;;;;;;5018929;28;46965;-63
2023/06/01 01:19:12;;;;;;;11.73;6.10;;;11.50;30.30;;;;;;5017827;28;46367;-63
2023/06/01 01:21:42;;;;;;;10.90;5.53;;;11.50;30.50;;;;;;5017269;28;46233;-63
2023/06/01 01:24:24;;;;;;;10.27;6.53;;;11.50;30.60;;;;;;5019979;28;46566;-63
2023/06/01 01:27:17;;;;;;;14.87;6.27;;;11.50;30.70;;;;;;5017084;28;46445;-62
2023/06/01 01:29:45;;;;;;;16.83;6.63;;;11.50;30.80;;;;;;5018260;28;46265;-63
2023/06/01 01:32:13;;;;;;;14.33;6.17;;;11.50;30.50;;;;;;5019934;28;46370;-64
2023/06/01 01:34:43;;;;;;;11.20;6.03;;;11.50;30.60;;;;;;5017837;28;46400;-63
2023/06/01 01:37:09;;;;;;;15.10;6.73;;;11.50;30.60;;;;;;5018190;28;46370;-64
2023/06/01 01:39:35;;;;;;;9.30;5.70;;;11.60;30.70;;;;;;5018639;28;46505;-63
2023/06/01 01:42:00;;;;;;;12.17;5.50;;;11.50;30.80;;;;;;5018396;28;46288;-63
2023/06/01 01:44:26;;;;;;;15.07;5.40;;;11.40;31.10;;;;;;5015589;28;46471;-63
2023/06/01 01:47:50;;;;;;;17.63;6.30;;;11.40;31.30;;;;;;5019844;28;46183;-63
2023/06/01 01:50:21;;;;;;;10.83;6.97;;;11.30;31.90;;;;;;4915744;28;46652;-63
2023/06/01 01:52:48;;;;;;;11.03;6.53;;;11.30;31.50;;;;;;4916733;28;46056;-63
2023/06/01 01:55:17;;;;;;;15.30;6.17;;;11.20;31.50;;;;;;4967077;28;46367;-63
2023/06/01 01:57:45;;;;;;;10.40;6.20;;;11.20;31.70;;;;;;5017923;28;46398;-63
2023/06/01 02:00:13;;;;;;;10.33;6.30;;;11.20;31.90;;;;;;5023775;28;46391;-63
2023/06/01 02:02:39;;;;;;;9.90;6.70;;;11.20;32.00;;;;;;5020414;28;46482;-63
2023/06/01 02:05:05;;;;;;;13.70;6.07;;;11.10;32.20;;;;;;5021393;28;46569;-63
2023/06/01 02:07:34;;;;;;;12.20;5.80;;;11.10;32.20;;;;;;5021267;28;47160;-62
2023/06/01 02:10:00;;;;;;;9.67;6.13;;;11.10;32.40;;;;;;5022487;28;46430;-63
2023/06/01 02:12:26;;;;;;;11.87;6.10;;;11.00;32.50;;;;;;5022058;28;46535;-63
2023/06/01 02:14:51;;;;;;;10.07;6.13;;;11.00;32.50;;;;;;5019400;28;46435;-63
2023/06/01 02:17:17;;;;;;;9.40;6.03;;;11.00;32.50;;;;;;5020763;28;46452;-63
2023/06/01 02:19:44;;;;;;;12.73;7.57;;;11.00;32.50;;;;;;5018504;28;46467;-63
2023/06/01 02:22:10;;;;;;;9.20;6.10;;;11.10;32.60;;;;;;5020376;28;46466;-63
2023/06/01 02:24:35;;;;;;;14.37;6.93;;;11.10;32.70;;;;;;5021422;28;46632;-63
2023/06/01 02:27:02;;;;;;;14.37;7.53;;;11.10;32.60;;;;;;5016943;28;46449;-63
2023/06/01 02:29:28;;;;;;;11.30;6.43;;;11.00;32.60;;;;;;5020613;28;46398;-63
2023/06/01 02:31:54;;;;;;;13.33;6.17;;;11.00;32.70;;;;;;5019780;28;46498;-63
2023/06/01 02:34:20;;;;;;;13.50;5.73;;;10.90;33.00;;;;;;5019681;28;46449;-63
2023/06/01 02:36:48;;;;;;;16.30;6.00;;;10.90;33.10;;;;;;5020090;28;46717;-64
2023/06/01 02:39:14;;;;;;;9.77;6.13;;;10.90;33.30;;;;;;5022578;28;45792;-63
2023/06/01 02:41:40;;;;;;;13.27;6.27;;;10.90;33.30;;;;;;5023508;28;46305;-63
2023/06/01 02:44:05;;;;;;;13.10;6.03;;;10.90;33.30;;;;;;5022201;28;46594;-62
2023/06/01 02:46:31;;;;;;;11.73;6.00;;;10.90;33.30;;;;;;5014572;28;45961;-64
2023/06/01 02:48:57;;;;;;;10.37;6.47;;;10.90;33.30;;;;;;5022040;28;46710;-63
2023/06/01 02:51:23;;;;;;;13.43;6.40;;;10.90;33.40;;;;;;5023559;28;46421;-64
2023/06/01 02:53:48;;;;;;;11.07;6.77;;;10.90;33.40;;;;;;5022827;28;46469;-64
2023/06/01 02:56:15;;;;;;;10.73;6.10;;;10.90;33.50;;;;;;5020556;28;47795;-63
2023/06/01 02:58:42;;;;;;;8.37;5.57;;;10.80;33.60;;;;;;5016076;28;45890;-64
2023/06/01 03:01:11;;;;;;;9.30;5.23;;;10.80;33.70;;;;;;5021342;28;46325;-63
2023/06/01 03:03:38;;;;;;;9.90;6.70;;;10.80;33.90;;;;;;5022742;28;45984;-63
2023/06/01 03:06:05;;;;;;;14.90;6.37;;;10.70;33.90;;;;;;5018794;28;47140;-63
2023/06/01 03:08:32;;;;;;;12.73;5.90;;;10.70;34.10;;;;;;5021245;28;46663;-63
2023/06/01 03:10:58;;;;;;;11.77;6.53;;;10.70;34.30;;;;;;5017244;28;46328;-63
2023/06/01 03:13:23;;;;;;;14.53;6.60;;;10.70;34.30;;;;;;5019809;28;46404;-63
2023/06/01 03:15:50;;;;;;;10.93;6.03;;;10.70;34.30;;;;;;5019187;28;46343;-63
2023/06/01 03:18:16;;;;;;;9.63;6.23;;;10.70;34.40;;;;;;5019833;28;46452;-63
2023/06/01 03:20:42;;;;;;;12.20;6.17;;;10.70;34.70;;;;;;5021865;28;45949;-63
2023/06/01 03:23:08;;;;;;;17.07;7.30;;;10.60;34.60;;;;;;5022643;28;46602;-63
2023/06/01 03:25:34;;;;;;;9.67;6.47;;;10.60;35.00;;;;;;5019864;28;46438;-63
2023/06/01 03:28:00;;;;;;;9.50;6.63;;;10.50;35.00;;;;;;5019260;28;46418;-63
2023/06/01 03:30:26;;;;;;;14.37;7.03;;;10.50;35.10;;;;;;5021550;28;46366;-63
2023/06/01 03:32:52;;;;;;;16.27;6.90;;;10.50;35.20;;;;;;5010181;28;46870;-63
2023/06/01 03:35:18;;;;;;;18.13;7.10;;;10.60;35.10;;;;;;5018858;28;47620;-63
2023/06/01 03:37:46;;;;;;;13.67;8.17;;;10.60;35.10;;;;;;5015822;28;46533;-64
2023/06/01 03:40:12;;;;;;;12.67;7.70;;;10.70;34.90;;;;;;5022593;28;46447;-63
2023/06/01 03:42:42;;;;;;;13.87;7.67;;;10.80;34.70;;;;;;5021990;28;46389;-64
2023/06/01 03:45:09;;;;;;;12.80;7.50;;;10.90;34.60;;;;;;5021046;28;46556;-63
2023/06/01 03:47:35;;;;;;;13.00;7.57;;;11.00;34.50;;;;;;5017768;28;46478;-63
2023/06/01 03:50:01;;;;;;;13.00;7.03;;;11.00;34.50;;;;;;5020656;28;46745;-63
2023/06/01 03:52:28;;;;;;;13.90;7.27;;;11.00;34.50;;;;;;5019469;28;46524;-63
2023/06/01 03:54:58;;;;;;;16.60;7.13;;;11.10;34.60;;;;;;5016558;28;46334;-63
2023/06/01 03:57:24;;;;;;;13.63;6.67;;;11.20;34.60;;;;;;5015495;28;46519;-63
2023/06/01 03:59:51;;;;;;;14.20;8.07;;;11.30;34.40;;;;;;5020136;28;46400;-63
2023/06/01 04:02:18;;;;;;;10.77;7.60;;;11.40;34.30;;;;;;5020884;28;46474;-63
2023/06/01 04:04:48;;;;;;;10.37;6.17;;;11.40;34.30;;;;;;5019599;28;46934;-63
2023/06/01 04:07:18;;;;;;;9.20;6.57;;;11.50;34.30;;;;;;5019671;28;46592;-63
2023/06/01 04:09:44;;;;;;;11.07;6.90;;;11.50;34.20;;;;;;5020588;28;46505;-63
2023/06/01 04:12:10;;;;;;;15.93;8.53;;;11.50;34.40;;;;;;5020024;28;46454;-64
2023/06/01 04:14:36;;;;;;;9.43;6.13;;;11.50;34.20;;;;;;5020087;28;47495;-63
2023/06/01 04:17:03;;;;;;;12.33;7.37;;;11.60;34.10;;;;;;5016611;28;46482;-63
2023/06/01 04:19:28;;;;;;;12.30;7.30;;;11.70;34.00;;;;;;5001586;28;46297;-62
2023/06/01 04:21:56;;;;;;;14.13;6.53;;;11.80;33.90;;;;;;5022321;28;46476;-64
2023/06/01 04:24:21;;;;;;;13.23;7.10;;;11.90;33.70;;;;;;5020900;28;46709;-64
2023/06/01 04:26:47;;;;;;;10.07;7.27;;;12.10;33.50;;;;;;5017325;28;46754;-64
2023/06/01 04:29:13;;;;;;;14.10;7.60;;;12.20;33.30;;;;;;5010951;28;46454;-64
2023/06/01 04:31:39;;;;;;;13.83;7.30;;;12.40;33.10;;;;;;5019010;28;46438;-64
2023/06/01 04:34:05;;;;;;;13.60;6.70;;;12.50;32.80;;;;;;5017636;28;46727;-63
2023/06/01 04:36:38;;;;;;;10.50;7.37;;;12.70;32.40;;;;;;5017452;28;46357;-64
2023/06/01 04:39:06;;;;;;;12.10;7.83;;;12.80;32.20;;;;;;5015479;28;45927;-64
2023/06/01 04:41:34;;;;;;;18.93;7.80;;;13.00;31.70;;;;;;5022098;28;45897;-63
2023/06/01 04:44:05;;;;;;;15.73;7.23;;;13.50;30.80;;;;;;5017122;28;47164;-63
2023/06/01 04:46:31;;;;;;;11.70;6.90;;;14.90;29.60;;;;;;5021695;28;46340;-63
2023/06/01 04:48:59;;;;;;;11.50;6.20;;;16.40;28.10;;;;;;5020200;28;45833;-63
2023/06/01 04:51:26;;;;;;;12.63;6.83;;;17.80;26.10;;;;;;5012759;28;46628;-65
2023/06/01 04:53:53;;;;;;;11.77;5.83;;;18.70;24.20;;;;;;5019506;28;47035;-64
2023/06/01 04:56:24;;;;;;;14.60;6.77;;;19.30;23.10;;;;;;5016328;28;46399;-63
2023/06/01 04:58:51;;;;;;;10.43;5.97;;;19.70;22.20;;;;;;5019304;28;46412;-64
2023/06/01 05:01:17;;;;;;;14.37;6.63;;;20.50;21.40;;;;;;5018453;28;46519;-64
2023/06/01 05:03:45;;;;;;;12.57;5.73;;;21.30;19.90;;;;;;5019737;28;46205;-63
2023/06/01 05:06:12;;;;;;;8.30;5.70;;;21.90;18.80;;;;;;5016278;28;46506;-62
2023/06/01 05:08:39;;;;;;;11.10;6.30;;;22.50;17.60;;;;;;5013421;28;46461;-63
2023/06/01 05:11:06;;;;;;;9.93;5.63;;;22.90;16.70;;;;;;5018655;28;46317;-62
2023/06/01 05:13:33;;;;;;;12.70;6.20;;;23.00;16.00;;;;;;5015855;28;47262;-63
2023/06/01 05:15:59;;;;;;;10.53;5.87;;;23.10;14.90;;;;;;5009953;28;46359;-63
2023/06/01 05:18:25;;;;;;;11.50;6.07;;;23.40;14.80;;;;;;5015223;28;46404;-63
2023/06/01 05:20:51;;;;;;;11.47;5.90;;;24.00;14.10;;;;;;5010916;28;46391;-63
2023/06/01 05:23:17;;;;;;;11.47;6.30;;;24.60;12.80;;;;;;5014425;28;46871;-63
2023/06/01 05:25:42;;;;;;;11.07;5.90;;;25.10;11.30;;;;;;5008996;28;46395;-61
2023/06/01 05:28:08;;;;;;;12.10;6.57;;;25.80;9.80;;;;;;5016174;28;46462;-63
2023/06/01 05:30:34;;;;;;;12.13;5.87;;;26.20;8.60;;;;;;5011586;28;46465;-62
2023/06/01 05:33:00;;;;;;;9.77;6.00;;;26.50;7.60;;;;;;5005306;28;48341;-62
2023/06/01 05:35:26;;;;;;;12.03;6.23;;;26.90;7.00;;;;;;5014866;28;46632;-61
2023/06/01 05:37:52;;;;;;;11.00;6.27;;;27.40;5.70;;;;;;4996125;28;46392;-62
2023/06/01 05:40:18;;;;;;;9.60;6.40;;;27.60;4.90;;;;;;5015812;28;46500;-62
2023/06/01 05:42:44;;;;;;;10.87;6.40;;;28.00;4.60;;;;;;5014559;28;46481;-62
2023/06/01 05:45:09;;;;;;;13.00;6.27;;;28.20;3.60;;;;;;5012582;28;46582;-61
2023/06/01 05:47:35;;;;;;;11.60;6.13;;;28.30;3.00;;;;;;5011819;28;46342;-61
2023/06/01 05:50:01;;;;;;;11.60;6.37;;;27.90;3.30;;;;;;5013657;28;46576;-62
2023/06/01 05:52:27;;;;;;;14.87;6.47;;;27.30;4.70;;;;;;5015829;28;46381;-62
2023/06/01 05:54:53;;;;;;;13.90;6.17;;;25.90;6.50;;;;;;5014126;28;46311;-61
2023/06/01 05:57:20;;;;;;;11.47;5.43;;;24.60;8.90;;;;;;5016163;28;46520;-61
2023/06/01 05:59:46;;;;;;;11.47;6.43;;;23.50;10.70;;;;;;5013361;28;46452;-62
2023/06/01 06:02:13;;;;;;;11.73;6.60;;;23.20;11.00;;;;;;5015188;28;47221;-63
2023/06/01 06:04:40;;;;;;;12.50;5.90;;;22.60;11.30;;;;;;5012598;28;46399;-62
2023/06/01 06:07:06;;;;;;;8.83;5.97;;;22.10;12.20;;;;;;5015154;28;46507;-62
2023/06/01 06:09:32;;;;;;;9.10;5.57;;;21.70;12.30;;;;;;5017570;28;46351;-62
2023/06/01 06:11:58;;;;;;;11.30;5.83;;;21.10;12.10;;;;;;5014282;28;46556;-62
2023/06/01 06:14:24;;;;;;;15.30;6.07;;;20.70;12.60;;;;;;5013471;28;46558;-62
2023/06/01 06:16:50;;;;;;;13.20;5.70;;;20.50;12.80;;;;;;5017538;28;45826;-61
2023/06/01 06:19:16;;;;;;;12.23;5.80;;;20.50;12.10;;;;;;5016550;28;46284;-61
2023/06/01 06:21:42;;;;;;;10.43;6.10;;;20.70;11.80;;;;;;5015859;28;46434;-62
2023/06/01 06:24:08;;;;;;;10.67;5.73;;;20.60;11.80;;;;;;5012344;28;46323;-62
2023/06/01 06:26:34;;;;;;;10.23;6.20;;;20.40;11.70;;;;;;4997212;28;46377;-61
2023/06/01 06:29:00;;;;;;;10.30;5.60;;;20.10;11.50;;;;;;5015940;28;46363;-61
2023/06/01 06:31:26;;;;;;;13.27;5.83;;;20.30;11.50;;;;;;5015779;28;46899;-63
2023/06/01 06:33:52;;;;;;;13.80;5.33;;;20.50;11.60;;;;;;5016457;28;46369;-63
2023/06/01 06:36:18;;;;;;;11.60;5.50;;;20.60;11.00;;;;;;5016393;28;46351;-62
2023/06/01 06:38:44;;;;;;;12.83;6.63;;;20.70;10.70;;;;;;5014722;28;46537;-63
2023/06/01 06:41:10;;;;;;;11.57;6.00;;;20.90;10.60;;;;;;5013985;28;46556;-62
2023/06/01 06:43:35;;;;;;;12.97;6.30;;;20.90;10.70;;;;;;5017390;28;46363;-62
2023/06/01 06:46:02;;;;;;;13.00;5.83;;;20.90;10.70;;;;;;5015142;28;46536;-62
2023/06/01 06:48:29;;;;;;;14.60;6.30;;;21.00;10.90;;;;;;5017103;28;46486;-62
2023/06/01 06:50:55;;;;;;;16.40;7.00;;;21.20;11.00;;;;;;5013585;28;46487;-62
2023/06/01 06:53:21;;;;;;;10.70;6.27;;;21.30;10.70;;;;;;5020231;28;46448;-62
2023/06/01 06:55:47;;;;;;;15.83;5.90;;;21.30;10.50;;;;;;5016527;28;46438;-62
2023/06/01 06:58:13;;;;;;;12.33;5.60;;;21.40;10.40;;;;;;5021315;28;46383;-62
2023/06/01 07:00:40;;;;;;;18.13;5.53;;;21.40;10.40;;;;;;5019917;28;46721;-62
2023/06/01 07:03:06;;;;;;;9.67;5.40;;;21.50;10.20;;;;;;5014417;28;45793;-63
2023/06/01 07:05:32;;;;;;;14.13;6.40;;;21.60;10.40;;;;;;5017477;28;46290;-62
2023/06/01 07:07:58;;;;;;;16.43;6.67;;;21.50;10.60;;;;;;5015032;28;46418;-63
2023/06/01 07:10:24;;;;;;;11.07;5.70;;;21.30;10.90;;;;;;5016667;28;46458;-62
2023/06/01 07:12:50;;;;;;;12.70;5.80;;;21.30;10.90;;;;;;5017643;28;46386;-63
2023/06/01 07:15:16;;;;;;;12.60;5.83;;;21.50;10.40;;;;;;5016954;28;46450;-62
2023/06/01 07:17:42;;;;;;;15.10;6.50;;;21.40;10.50;;;;;;5019479;28;46386;-62
2023/06/01 07:20:11;;;;;;;14.30;6.57;;;21.30;10.80;;;;;;5016178;28;46324;-62
2023/06/01 07:22:38;;;;;;;17.83;5.57;;;21.50;10.50;;;;;;5013791;28;46355;-62
2023/06/01 07:25:05;;;;;;;10.43;6.07;;;21.40;10.60;;;;;;5017293;28;46497;-62
2023/06/01 07:27:31;;;;;;;13.40;6.17;;;21.20;10.80;;;;;;5019146;28;46461;-61
2023/06/01 07:29:57;;;;;;;11.33;5.83;;;21.30;10.90;;;;;;5015737;28;47212;-62
2023/06/01 07:32:24;;;;;;;10.93;5.80;;;21.20;10.80;;;;;;5015057;28;46343;-62
2023/06/01 07:34:50;;;;;;;19.23;6.70;;;21.20;11.10;;;;;;5022918;28;46431;-61
2023/06/01 07:37:16;;;;;;;13.80;7.13;;;21.50;10.60;;;;;;5020575;28;46213;-63
2023/06/01 07:39:42;;;;;;;12.70;6.00;;;21.40;11.00;;;;;;5015385;28;46300;-62
2023/06/01 07:42:07;;;;;;;10.13;5.40;;;21.20;10.80;;;;;;5016449;28;46537;-62
2023/06/01 07:44:33;;;;;;;13.30;6.37;;;21.40;10.70;;;;;;5017373;28;46394;-62
2023/06/01 07:46:59;;;;;;;10.63;5.83;;;21.60;10.50;;;;;;5019160;28;46829;-62
2023/06/01 07:49:25;;;;;;;12.10;5.93;;;21.70;10.40;;;;;;5015975;28;47113;-62
2023/06/01 07:51:52;;;;;;;11.90;6.60;;;21.90;10.40;;;;;;5014740;28;46764;-62
2023/06/01 07:54:18;;;;;;;14.00;6.40;;;22.20;10.00;;;;;;5018818;28;46463;-62
2023/06/01 07:56:44;;;;;;;10.70;6.13;;;22.30;9.50;;;;;;5016585;28;46387;-62
2023/06/01 07:59:09;;;;;;;12.90;6.33;;;22.40;9.70;;;;;;5015059;28;46938;-61
2023/06/01 08:01:37;;;;;;;17.17;6.60;;;22.30;9.60;;;;;;5016783;28;45902;-63
2023/06/01 08:04:03;;;;;;;12.77;6.10;;;22.10;10.00;;;;;;5016483;28;46809;-63
2023/06/01 08:06:35;;;;;;;12.50;7.30;;;22.00;10.20;;;;;;5018508;28;45868;-62
2023/06/01 08:09:02;;;;;;;12.67;5.67;;;21.90;10.50;;;;;;5017528;28;46335;-63
2023/06/01 08:11:28;;;;;;;13.50;6.30;;;22.00;10.50;;;;;;5011544;28;46355;-62
2023/06/01 08:13:53;;;;;;;13.17;5.60;;;21.90;10.60;;;;;;5018856;28;46346;-62
2023/06/01 08:16:19;;;;;;;11.93;6.47;;;22.20;10.60;;;;;;5017939;28;46432;-62
2023/06/01 08:18:45;;;;;;;15.30;6.70;;;22.40;10.30;;;;;;5015329;28;47172;-63
2023/06/01 08:21:10;;;;;;;14.13;5.47;;;22.50;10.30;;;;;;5013773;28;46367;-62
2023/06/01 08:23:36;;;;;;;12.93;6.57;;;22.60;10.10;;;;;;5018155;28;46410;-62
2023/06/01 08:26:02;;;;;;;13.10;6.60;;;22.50;10.30;;;;;;5015798;28;46377;-62
2023/06/01 08:28:28;;;;;;;9.13;6.00;;;22.70;10.00;;;;;;5015014;28;46434;-62
2023/06/01 08:30:54;;;;;;;12.43;6.43;;;22.90;9.50;;;;;;5016522;28;46473;-62
2023/06/01 08:33:19;;;;;;;11.60;6.70;;;23.10;9.40;;;;;;5017078;28;46379;-62
2023/06/01 08:35:45;;;;;;;14.43;5.97;;;23.30;9.30;;;;;;5018970;28;46035;-62
2023/06/01 08:38:11;;;;;;;11.67;5.97;;;23.20;9.60;;;;;;4997232;28;48515;-62
2023/06/01 08:40:36;;;;;;;15.33;6.30;;;23.40;9.20;;;;;;5011907;28;46422;-59
2023/06/01 08:43:11;;;;;;;12.20;5.53;;;23.50;9.90;;;;;;5016105;28;46443;-64
2023/06/01 08:45:38;;;;;;;10.70;6.33;;;23.70;8.80;;;;;;5011935;28;46457;-65
2023/06/01 08:48:08;;;;;;;13.57;5.80;;;23.70;8.80;;;;;;5011414;28;46421;-65
2023/06/01 08:50:34;;;;;;;13.97;5.97;;;23.50;8.90;;;;;;5015539;28;46438;-66
2023/06/01 08:53:03;;;;;;;10.60;5.70;;;23.20;9.20;;;;;;5016263;28;46675;-65
2023/06/01 08:55:29;;;;;;;15.30;6.10;;;23.00;9.30;;;;;;5014491;28;46687;-65
2023/06/01 08:57:56;;;;;;;11.53;5.90;;;22.90;9.40;;;;;;5012343;28;46949;-66
2023/06/01 09:00:23;;;;;;;8.30;5.17;;;22.90;9.60;;;;;;5016952;28;46423;-65
2023/06/01 09:02:49;;;;;;;13.50;6.30;;;23.20;9.30;;;;;;5016648;28;46459;-64
2023/06/01 09:05:17;;;;;;;8.67;5.43;;;23.20;8.90;;;;;;5014508;28;46402;-64
2023/06/01 09:07:42;;;;;;;12.83;6.23;;;23.10;9.00;;;;;;5013784;28;47942;-64
2023/06/01 09:10:08;;;;;;;12.30;5.67;;;23.10;9.10;;;;;;5015350;28;46391;-63
2023/06/01 09:12:35;;;;;;;9.43;6.37;;;23.10;9.10;;;;;;5013742;28;46498;-65
2023/06/01 09:15:18;;;;;;;10.73;5.37;;;23.50;8.90;;;;;;5013314;28;46463;-64
2023/06/01 09:17:46;;;;;;;11.67;5.70;;;23.70;8.90;;;;;;5012021;28;47166;-64
2023/06/01 09:20:23;;;;;;;15.60;6.30;;;23.80;8.40;;;;;;4996770;28;46473;-65
2023/06/01 09:22:49;;;;;;;8.83;5.40;;;23.70;8.50;;;;;;5015633;28;46418;-62
2023/06/01 09:25:15;;;;;;;11.57;5.50;;;23.60;8.80;;;;;;5013889;28;46581;-65
2023/06/01 09:27:46;;;;;;;13.27;5.70;;;23.80;9.10;;;;;;5013106;28;46417;-64
2023/06/01 09:30:12;;;;;;;11.63;6.17;;;23.90;8.60;;;;;;5012653;28;46499;-64
2023/06/01 09:32:38;;;;;;;13.47;5.63;;;24.20;8.60;;;;;;5016477;28;46420;-64
2023/06/01 09:35:07;;;;;;;10.57;5.47;;;24.30;8.00;;;;;;5014195;28;46299;-65
2023/06/01 09:37:33;;;;;;;8.40;5.50;;;24.20;7.90;;;;;;5016377;28;46697;-66
2023/06/01 09:40:00;;;;;;;9.33;5.33;;;24.40;8.00;;;;;;4996017;28;45942;-66
2023/06/01 09:42:33;;;;;;;12.30;5.50;;;24.50;8.00;;;;;;5014007;28;46423;-66
2023/06/01 09:45:20;;;;;;;11.50;6.03;;;24.30;7.80;;;;;;5014282;28;46542;-64
2023/06/01 09:47:46;;;;;;;16.00;7.00;;;24.40;7.60;;;;;;5015244;28;46462;-65
2023/06/01 09:50:37;;;;;;;11.20;5.50;;;24.40;7.80;;;;;;5014905;28;46415;-65
2023/06/01 09:53:05;;;;;;;10.43;6.00;;;24.10;8.00;;;;;;4995719;28;46344;-65
2023/06/01 09:55:31;;;;;;;10.37;5.50;;;24.10;7.70;;;;;;5011715;28;46574;-64
2023/06/01 09:58:16;;;;;;;12.67;5.83;;;24.20;7.50;;;;;;5010743;28;46336;-66
2023/06/01 10:00:42;;;;;;;13.97;6.20;;;24.20;7.80;;;;;;5014891;28;46301;-65
2023/06/01 10:03:09;;;;;;;10.17;5.20;;;24.20;7.50;;;;;;5012130;28;46177;-64
2023/06/01 10:05:35;;;;;;;11.53;4.80;;;24.20;7.50;;;;;;5014994;28;46466;-65
2023/06/01 10:08:02;;;;;;;12.70;5.47;;;24.20;7.50;;;;;;5015648;28;46383;-65
2023/06/01 10:10:29;;;;;;;12.60;5.63;;;24.30;7.20;;;;;;5017438;28;46369;-64
2023/06/01 10:12:55;;;;;;;14.47;5.53;;;24.60;7.00;;;;;;5015893;28;46683;-64
2023/06/01 10:15:20;;;;;;;10.40;5.07;;;24.40;6.70;;;;;;5017892;28;46604;-66
2023/06/01 10:17:48;;;;;;;9.83;5.00;;;24.20;6.70;;;;;;5018635;28;46987;-64
2023/06/01 10:20:15;;;;;;;12.70;5.93;;;24.10;6.40;;;;;;5017591;28;45855;-65
2023/06/01 10:22:42;;;;;;;9.30;5.33;;;24.20;6.50;;;;;;5014568;28;46372;-65
2023/06/01 10:25:12;;;;;;;11.93;5.17;;;24.40;6.10;;;;;;5021235;28;46537;-64
2023/06/01 10:27:52;;;;;;;10.17;5.03;;;24.60;6.10;;;;;;5018568;28;46578;-65
2023/06/01 10:30:18;;;;;;;11.70;6.07;;;24.60;5.70;;;;;;5013917;28;46761;-67
2023/06/01 10:32:48;;;;;;;12.80;5.90;;;24.60;5.70;;;;;;5014792;28;46437;-65
2023/06/01 10:35:37;;;;;;;9.77;5.50;;;24.40;5.30;;;;;;5018423;28;46463;-64
2023/06/01 10:38:23;;;;;;;9.40;5.47;;;24.40;5.20;;;;;;4991019;28;47248;-64
2023/06/01 10:40:49;;;;;;;15.43;5.50;;;24.40;5.30;;;;;;5015500;28;47106;-64
2023/06/01 10:43:40;;;;;;;16.90;6.40;;;24.70;5.00;;;;;;5015672;28;46514;-64
2023/06/01 10:46:41;;;;;;;16.20;4.93;;;24.60;4.80;;;;;;5015283;28;46378;-65
2023/06/01 10:49:07;;;;;;;14.83;5.50;;;24.60;4.80;;;;;;4936181;28;47237;-64
2023/06/01 10:51:33;;;;;;;9.70;5.27;;;24.90;4.40;;;;;;4998098;28;45797;-65
2023/06/01 10:54:39;;;;;;;10.93;6.23;;;24.80;4.50;;;;;;5017948;28;46366;-65
2023/06/01 10:57:25;;;;;;;13.33;5.30;;;24.70;4.20;;;;;;4936388;28;46487;-65
2023/06/01 11:00:15;;;;;;;10.50;5.60;;;24.80;4.20;;;;;;4934476;28;46520;-64
2023/06/01 11:02:57;;;;;;;12.10;4.60;;;25.20;3.60;;;;;;4981666;28;45919;-65
2023/06/01 11:05:36;;;;;;;7.90;4.70;;;25.50;3.70;;;;;;5018437;28;46589;-64
2023/06/01 11:08:03;;;;;;;12.30;4.63;;;25.60;3.70;;;;;;5015014;28;45967;-66
2023/06/01 11:10:55;;;;;;;14.57;5.30;;;25.70;2.70;;;;;;5014512;28;46511;-66
2023/06/01 11:13:27;;;;;;;14.33;4.50;;;25.60;2.20;;;;;;5016144;28;46652;-65
2023/06/01 11:16:09;;;;;;;16.23;5.20;;;25.70;2.60;;;;;;5017330;28;46557;-68
2023/06/01 11:18:41;;;;;;;12.37;5.63;;;25.40;2.60;;;;;;5016259;28;46429;-65
2023/06/01 11:21:12;;;;;;;9.83;5.30;;;25.50;3.00;;;;;;5013657;28;46792;-64
2023/06/01 11:23:39;;;;;;;8.70;5.10;;;25.80;2.30;;;;;;5015202;28;46014;-66
2023/06/01 11:26:08;;;;;;;9.30;4.90;;;25.80;2.00;;;;;;5018042;28;46474;-65
2023/06/01 11:28:35;;;;;;;13.00;5.20;;;25.70;1.60;;;;;;4996154;28;46380;-65
2023/06/01 11:31:02;;;;;;;12.77;5.50;;;25.50;1.60;;;;;;5013899;28;46354;-64
2023/06/01 11:33:28;;;;;;;10.33;5.00;;;25.70;1.70;;;;;;5015718;28;46459;-64
2023/06/01 11:35:58;;;;;;;12.50;5.07;;;25.80;1.40;;;;;;5017003;28;46404;-64
2023/06/01 11:38:32;;;;;;;11.63;5.53;;;25.80;1.40;;;;;;5015806;28;46304;-65
2023/06/01 11:41:02;;;;;;;11.20;5.50;;;25.90;1.20;;;;;;5016359;28;46388;-64
2023/06/01 11:43:31;;;;;;;11.43;5.30;;;25.60;1.10;;;;;;5017070;28;46760;-65
2023/06/01 11:46:07;;;;;;;8.80;5.40;;;25.40;1.20;;;;;;5015561;28;46474;-65
2023/06/01 11:48:34;;;;;;;9.37;5.03;;;25.50;1.80;;;;;;5018508;28;46657;-65
2023/06/01 11:51:04;;;;;;;12.33;4.30;;;25.60;1.40;;;;;;5012874;28;46327;-63
2023/06/01 11:53:31;;;;;;;13.07;4.43;;;25.70;1.00;;;;;;5015292;28;46458;-66
2023/06/01 11:55:58;;;;;;;6.87;4.70;;;25.80;1.10;;;;;;5016457;28;46499;-66
2023/06/01 11:58:30;;;;;;;22.33;5.23;;;25.90;1.00;;;;;;5015368;28;46665;-66
2023/06/01 12:00:57;;;;;;;9.57;5.00;;;25.80;1.00;;;;;;5012151;28;46528;-66
2023/06/01 12:03:24;;;;;;;12.80;5.87;;;25.90;1.00;;;;;;5017950;28;46473;-65
2023/06/01 12:05:50;;;;;;;8.23;5.53;;;26.00;1.00;;;;;;5014706;28;46463;-66
2023/06/01 12:08:21;;;;;;;8.27;4.73;;;26.10;1.00;;;;;;5014459;28;46637;-65
2023/06/01 12:10:52;;;;;;;12.57;5.40;;;25.90;1.00;;;;;;4992379;28;47869;-65
2023/06/01 12:13:19;;;;;;;9.83;5.67;;;25.80;1.00;;;;;;5014608;28;46393;-66
2023/06/01 12:15:45;;;;;;;12.53;5.07;;;25.80;1.00;;;;;;5016236;28;46454;-65
2023/06/01 12:18:12;;;;;;;10.93;4.63;;;26.00;1.00;;;;;;5015914;28;45872;-65
2023/06/01 12:20:39;;;;;;;10.07;5.47;;;26.00;1.00;;;;;;5013893;28;46451;-64
2023/06/01 12:23:13;;;;;;;7.90;4.90;;;25.90;1.00;;;;;;5015761;28;46486;-65
2023/06/01 12:25:55;;;;;;;9.50;5.40;;;25.80;1.00;;;;;;5013901;28;46827;-66
2023/06/01 12:28:23;;;;;;;11.33;4.70;;;25.80;1.00;;;;;;5015950;28;46675;-66
2023/06/01 12:30:49;;;;;;;10.80;4.83;;;25.80;1.00;;;;;;5017782;28;47940;-65
2023/06/01 12:33:35;;;;;;;11.37;5.03;;;26.20;1.00;;;;;;5014509;28;46344;-66
2023/06/01 12:36:03;;;;;;;11.73;5.33;;;26.40;1.00;;;;;;5011857;28;46712;-65
2023/06/01 12:38:36;;;;;;;9.40;5.20;;;26.70;1.00;;;;;;5013967;28;46411;-65
2023/06/01 12:41:12;;;;;;;8.23;5.00;;;26.70;1.00;;;;;;5000796;28;46445;-63
2023/06/01 12:43:38;;;;;;;9.47;4.80;;;26.60;1.00;;;;;;5014490;28;46720;-64
2023/06/01 12:46:08;;;;;;;10.97;5.30;;;26.70;1.00;;;;;;5012350;28;46446;-64
2023/06/01 12:48:36;;;;;;;16.70;5.37;;;26.70;1.00;;;;;;5014198;28;46442;-65
2023/06/01 12:51:03;;;;;;;7.43;4.90;;;26.50;1.00;;;;;;5016285;28;46628;-65